Time;durP1;ratioP1;P1;durP2;ratioP2;P2;SDS_P1;SDS_P2;PMS_P1;PMS_P2;Temp;Humidity;BMP_temperature;BMP_pressure;BME280_temperature;BME280_humidity;BME280_pressure;Samples;Min_cycle;Max_cycle;Signal;HPM_P1;HPM_P2
2023/12/29 00:01:56;;;;;;;22.02;3.08;;;;;;;;;;5014410;28;20374;-73
2023/12/29 00:04:21;;;;;;;18.30;3.10;;;;;;;;;;5014163;28;20033;-73
2023/12/29 00:06:46;;;;;;;13.73;2.70;;;;;;;;;;5013925;28;20038;-73
2023/12/29 00:09:12;;;;;;;24.48;3.70;;;;;;;;;;5012790;28;20049;-73
2023/12/29 00:11:37;;;;;;;24.90;3.53;;;;;;;;;;5014247;28;20026;-75
2023/12/29 00:14:03;;;;;;;23.73;2.97;;;;;;;;;;5013949;28;20481;-73
2023/12/29 00:16:28;;;;;;;25.60;3.60;;;;;;;;;;5014042;28;20026;-74
2023/12/29 00:18:53;;;;;;;34.13;5.45;;;;;;;;;;5014017;28;20080;-73
2023/12/29 00:21:18;;;;;;;23.83;4.33;;;;;;;;;;5014325;28;20086;-73
2023/12/29 00:23:44;;;;;;;27.83;3.42;;;;;;;;;;5013845;28;20257;-73
2023/12/29 00:26:09;;;;;;;15.60;3.30;;;;;;;;;;5013876;28;20100;-73
2023/12/29 00:28:36;;;;;;;25.52;4.07;;;;;;;;;;5013896;28;20026;-73
2023/12/29 00:31:02;;;;;;;20.65;3.20;;;;;;;;;;5013465;28;20052;-73
2023/12/29 00:33:27;;;;;;;22.10;3.55;;;;;;;;;;5013836;28;20352;-73
2023/12/29 00:35:52;;;;;;;26.33;4.45;;;;;;;;;;5012566;28;20036;-73
2023/12/29 00:38:17;;;;;;;17.65;3.25;;;;;;;;;;5013748;28;20470;-72
2023/12/29 00:40:43;;;;;;;19.88;2.60;;;;;;;;;;5013275;28;20028;-73
2023/12/29 00:43:08;;;;;;;26.70;3.63;;;;;;;;;;5013636;28;20467;-73
2023/12/29 00:45:35;;;;;;;18.90;3.05;;;;;;;;;;5013324;28;20335;-73
2023/12/29 00:48:01;;;;;;;22.02;3.75;;;;;;;;;;5012205;28;20041;-72
2023/12/29 00:50:26;;;;;;;16.65;3.13;;;;;;;;;;5013556;28;20022;-72
2023/12/29 00:52:51;;;;;;;17.85;3.53;;;;;;;;;;5011883;28;20097;-73
2023/12/29 00:55:16;;;;;;;34.35;4.22;;;;;;;;;;5013265;28;20060;-73
2023/12/29 00:57:42;;;;;;;15.98;2.83;;;;;;;;;;5013465;28;20443;-78
2023/12/29 01:00:08;;;;;;;28.48;4.35;;;;;;;;;;5013374;28;20485;-72
2023/12/29 01:02:33;;;;;;;21.90;3.60;;;;;;;;;;5013431;28;20050;-75
2023/12/29 01:04:58;;;;;;;25.27;4.22;;;;;;;;;;5013091;28;20072;-74
2023/12/29 01:07:23;;;;;;;29.13;3.65;;;;;;;;;;5013131;28;20034;-73
2023/12/29 01:09:49;;;;;;;29.33;3.55;;;;;;;;;;5012032;28;20471;-72
2023/12/29 01:12:15;;;;;;;21.33;3.83;;;;;;;;;;5015395;28;20455;-72
2023/12/29 01:14:40;;;;;;;25.80;3.88;;;;;;;;;;5017149;28;20257;-72
2023/12/29 01:17:05;;;;;;;19.90;4.13;;;;;;;;;;5017198;28;20057;-72
2023/12/29 01:19:31;;;;;;;17.35;3.50;;;;;;;;;;5017230;28;20113;-73
2023/12/29 01:21:56;;;;;;;13.98;2.60;;;;;;;;;;5017147;28;20026;-73
2023/12/29 01:24:21;;;;;;;19.37;3.40;;;;;;;;;;5015818;28;20018;-73
2023/12/29 01:26:46;;;;;;;18.47;3.67;;;;;;;;;;5016689;28;20295;-77
2023/12/29 01:29:11;;;;;;;20.80;2.90;;;;;;;;;;5017038;28;20256;-72
2023/12/29 01:31:37;;;;;;;16.95;2.97;;;;;;;;;;5016961;28;20261;-73
2023/12/29 01:34:02;;;;;;;12.93;2.75;;;;;;;;;;5017390;28;20049;-73
2023/12/29 01:36:27;;;;;;;22.90;3.63;;;;;;;;;;5017775;28;20113;-72
2023/12/29 01:38:52;;;;;;;23.53;3.20;;;;;;;;;;5015631;28;20025;-73
2023/12/29 01:41:21;;;;;;;24.80;3.92;;;;;;;;;;5016516;28;20276;-73
2023/12/29 01:44:01;;;;;;;25.08;4.18;;;;;;;;;;5016392;28;20022;-72
2023/12/29 01:46:31;;;;;;;12.87;2.57;;;;;;;;;;5016784;28;20374;-72
2023/12/29 01:48:57;;;;;;;18.88;3.63;;;;;;;;;;5017339;28;20025;-72
2023/12/29 01:51:24;;;;;;;24.92;3.05;;;;;;;;;;5016781;28;20037;-72
2023/12/29 01:53:50;;;;;;;21.67;3.35;;;;;;;;;;5016476;28;20076;-78
2023/12/29 01:56:16;;;;;;;13.77;2.65;;;;;;;;;;5016299;28;20449;-72
2023/12/29 01:58:41;;;;;;;20.52;3.28;;;;;;;;;;5016423;28;20062;-72
2023/12/29 02:01:06;;;;;;;26.60;4.05;;;;;;;;;;5016583;28;20021;-71
2023/12/29 02:03:32;;;;;;;19.17;3.83;;;;;;;;;;5016539;28;20102;-73
2023/12/29 02:05:58;;;;;;;20.90;3.28;;;;;;;;;;5016496;28;20066;-72
2023/12/29 02:08:23;;;;;;;16.65;3.22;;;;;;;;;;5016046;28;20104;-73
2023/12/29 02:10:49;;;;;;;16.77;3.17;;;;;;;;;;5016827;28;20507;-72
2023/12/29 02:13:14;;;;;;;23.75;3.10;;;;;;;;;;5015447;28;20026;-73
2023/12/29 02:15:39;;;;;;;20.35;2.95;;;;;;;;;;5015956;28;20100;-74
2023/12/29 02:18:06;;;;;;;23.98;3.05;;;;;;;;;;5016351;28;20060;-73
2023/12/29 02:20:31;;;;;;;16.05;3.20;;;;;;;;;;5015081;28;20386;-72
2023/12/29 02:22:56;;;;;;;24.17;2.90;;;;;;;;;;5015190;28;20074;-73
2023/12/29 02:25:22;;;;;;;32.70;4.03;;;;;;;;;;5016431;28;20028;-74
2023/12/29 02:27:57;;;;;;;30.92;4.68;;;;;;;;;;5015988;28;20390;-72
2023/12/29 02:30:26;;;;;;;36.35;4.80;;;;;;;;;;5015946;28;20108;-74
2023/12/29 02:32:54;;;;;;;27.10;3.60;;;;;;;;;;5015824;28;20088;-74
2023/12/29 02:35:22;;;;;;;37.45;4.35;;;;;;;;;;5015753;28;20585;-73
2023/12/29 02:37:48;;;;;;;31.08;3.78;;;;;;;;;;5016016;28;20022;-72
2023/12/29 02:40:14;;;;;;;31.30;4.82;;;;;;;;;;5016212;28;20029;-73
2023/12/29 02:42:44;;;;;;;40.25;4.07;;;;;;;;;;5014226;28;20061;-72
2023/12/29 02:45:10;;;;;;;30.17;3.65;;;;;;;;;;5015550;28;20462;-72
2023/12/29 02:47:35;;;;;;;37.92;4.38;;;;;;;;;;5015531;28;20034;-72
2023/12/29 02:50:00;;;;;;;44.95;5.85;;;;;;;;;;5015973;28;20033;-73
2023/12/29 02:52:26;;;;;;;39.30;4.80;;;;;;;;;;5015265;28;20022;-72
2023/12/29 02:54:51;;;;;;;35.85;5.40;;;;;;;;;;5013944;28;20308;-72
2023/12/29 02:57:16;;;;;;;40.78;5.43;;;;;;;;;;5015290;28;20363;-72
2023/12/29 02:59:41;;;;;;;36.65;4.85;;;;;;;;;;5015329;28;20026;-74
2023/12/29 03:02:07;;;;;;;32.90;5.00;;;;;;;;;;5015773;28;20080;-73
2023/12/29 03:04:32;;;;;;;32.43;4.50;;;;;;;;;;5016035;28;20026;-73
2023/12/29 03:06:57;;;;;;;30.60;4.78;;;;;;;;;;5014503;28;20308;-73
2023/12/29 03:09:22;;;;;;;32.40;4.17;;;;;;;;;;5016035;28;20014;-73
2023/12/29 03:11:47;;;;;;;27.42;4.53;;;;;;;;;;5015460;28;20265;-73
2023/12/29 03:14:14;;;;;;;32.15;4.60;;;;;;;;;;5015072;28;20033;-73
2023/12/29 03:16:40;;;;;;;32.08;4.75;;;;;;;;;;5015389;28;20037;-72
2023/12/29 03:19:05;;;;;;;31.80;4.53;;;;;;;;;;5015212;28;20034;-73
2023/12/29 03:21:30;;;;;;;26.33;4.17;;;;;;;;;;5014995;28;20026;-72
2023/12/29 03:23:55;;;;;;;29.38;3.90;;;;;;;;;;5015010;28;20261;-73
2023/12/29 03:26:20;;;;;;;22.30;3.20;;;;;;;;;;5014639;28;20411;-73
2023/12/29 03:28:46;;;;;;;14.63;3.37;;;;;;;;;;5013723;28;20352;-73
2023/12/29 03:31:11;;;;;;;29.47;3.87;;;;;;;;;;5015321;28;20265;-73
2023/12/29 03:33:36;;;;;;;22.93;3.80;;;;;;;;;;5014732;28;20265;-73
2023/12/29 03:36:01;;;;;;;29.20;4.07;;;;;;;;;;5013442;28;20280;-73
2023/12/29 03:38:27;;;;;;;27.10;3.58;;;;;;;;;;5014589;28;20092;-72
2023/12/29 03:40:52;;;;;;;25.50;4.40;;;;;;;;;;5014597;28;20030;-72
2023/12/29 03:43:17;;;;;;;28.27;4.70;;;;;;;;;;5014549;28;20268;-72
2023/12/29 03:45:42;;;;;;;30.23;4.32;;;;;;;;;;5014399;28;20037;-72
2023/12/29 03:48:08;;;;;;;23.60;4.72;;;;;;;;;;5014577;28;20021;-73
2023/12/29 03:50:34;;;;;;;33.25;5.07;;;;;;;;;;5013816;28;20030;-73
2023/12/29 03:52:59;;;;;;;48.60;5.07;;;;;;;;;;5014687;28;20026;-73
2023/12/29 03:55:24;;;;;;;41.15;6.75;;;;;;;;;;5014898;28;20050;-73
2023/12/29 03:57:49;;;;;;;41.43;4.93;;;;;;;;;;5014587;28;20059;-72
2023/12/29 04:00:14;;;;;;;34.80;4.73;;;;;;;;;;5014781;28;20332;-73
2023/12/29 04:02:40;;;;;;;38.15;4.70;;;;;;;;;;5014814;28;20260;-73
2023/12/29 04:05:06;;;;;;;44.55;5.53;;;;;;;;;;5014324;28;20419;-72
2023/12/29 04:07:31;;;;;;;33.92;5.53;;;;;;;;;;5014179;28;20038;-73
2023/12/29 04:09:56;;;;;;;47.73;5.20;;;;;;;;;;5014113;28;20088;-72
2023/12/29 04:12:22;;;;;;;39.05;5.28;;;;;;;;;;5013966;28;20661;-72
2023/12/29 04:14:47;;;;;;;38.93;4.93;;;;;;;;;;5013767;28;20406;-73
2023/12/29 04:17:13;;;;;;;35.43;4.37;;;;;;;;;;5013697;28;20756;-73
2023/12/29 04:19:39;;;;;;;42.92;5.80;;;;;;;;;;5013970;28;20360;-73
2023/12/29 04:22:05;;;;;;;37.05;5.20;;;;;;;;;;5014223;28;20037;-73
2023/12/29 04:24:30;;;;;;;43.92;5.32;;;;;;;;;;5013790;28;20486;-72
2023/12/29 04:26:55;;;;;;;39.42;5.50;;;;;;;;;;5013732;28;20497;-73
2023/12/29 04:29:20;;;;;;;41.17;5.50;;;;;;;;;;5012693;28;20045;-73
2023/12/29 04:31:45;;;;;;;43.90;7.07;;;;;;;;;;5012548;28;20079;-73
2023/12/29 04:34:11;;;;;;;41.13;6.30;;;;;;;;;;5014082;28;20030;-73
2023/12/29 04:36:36;;;;;;;42.58;6.20;;;;;;;;;;5013633;28;20272;-73
2023/12/29 04:39:01;;;;;;;43.80;5.90;;;;;;;;;;5013749;28;20137;-73
2023/12/29 04:41:26;;;;;;;37.00;5.23;;;;;;;;;;5013061;28;20268;-73
2023/12/29 04:43:51;;;;;;;38.30;5.18;;;;;;;;;;5013873;28;20653;-73
2023/12/29 04:46:17;;;;;;;36.77;5.47;;;;;;;;;;5013083;28;20080;-73
2023/12/29 04:48:42;;;;;;;45.72;5.60;;;;;;;;;;5013330;28;20339;-73
2023/12/29 04:51:07;;;;;;;36.85;4.13;;;;;;;;;;5013579;28;20517;-73
2023/12/29 04:53:32;;;;;;;36.10;5.63;;;;;;;;;;5013557;28;20370;-73
2023/12/29 04:55:58;;;;;;;55.85;6.95;;;;;;;;;;5013589;28;20249;-73
2023/12/29 04:58:23;;;;;;;37.70;4.70;;;;;;;;;;5013614;28;20033;-72
2023/12/29 05:00:48;;;;;;;37.92;5.47;;;;;;;;;;5012175;28;20125;-73
2023/12/29 05:03:13;;;;;;;37.13;5.47;;;;;;;;;;5013435;28;20068;-72
2023/12/29 05:05:39;;;;;;;46.47;5.73;;;;;;;;;;5012020;28;20029;-72
2023/12/29 05:08:04;;;;;;;41.00;5.85;;;;;;;;;;5013547;28;20260;-73
2023/12/29 05:10:29;;;;;;;38.45;6.03;;;;;;;;;;5013803;28;20024;-73
2023/12/29 05:12:55;;;;;;;44.13;5.45;;;;;;;;;;5013335;28;20478;-73
2023/12/29 05:15:20;;;;;;;46.33;7.07;;;;;;;;;;5011979;28;20022;-73
2023/12/29 05:17:45;;;;;;;44.30;5.50;;;;;;;;;;5013337;28;20629;-72
2023/12/29 05:20:10;;;;;;;47.00;6.32;;;;;;;;;;5013280;28;20736;-73
2023/12/29 05:22:36;;;;;;;35.03;5.07;;;;;;;;;;5013162;28;20048;-73
2023/12/29 05:25:02;;;;;;;42.80;5.68;;;;;;;;;;5012850;28;20037;-74
2023/12/29 05:27:27;;;;;;;47.15;5.57;;;;;;;;;;5011942;28;20041;-72
2023/12/29 05:29:52;;;;;;;42.15;5.38;;;;;;;;;;5013174;28;20025;-74
2023/12/29 05:32:17;;;;;;;41.97;6.68;;;;;;;;;;5012803;28;20493;-74
2023/12/29 05:34:42;;;;;;;36.50;5.55;;;;;;;;;;5011372;28;20030;-73
2023/12/29 05:37:08;;;;;;;49.58;6.22;;;;;;;;;;5012270;28;20037;-73
2023/12/29 05:39:33;;;;;;;42.25;5.80;;;;;;;;;;5011533;28;20053;-73
2023/12/29 05:41:58;;;;;;;39.38;4.72;;;;;;;;;;5011625;28;20034;-74
2023/12/29 05:44:23;;;;;;;35.63;4.95;;;;;;;;;;5013879;28;20022;-73
2023/12/29 05:46:49;;;;;;;39.33;4.80;;;;;;;;;;5012517;28;20422;-73
2023/12/29 05:49:14;;;;;;;25.95;5.25;;;;;;;;;;5012421;28;20432;-72
2023/12/29 05:51:39;;;;;;;33.20;5.03;;;;;;;;;;5013011;28;20144;-73
2023/12/29 05:54:05;;;;;;;37.88;4.75;;;;;;;;;;5012555;28;20416;-72
2023/12/29 05:56:30;;;;;;;34.95;5.38;;;;;;;;;;5012866;28;20045;-72
2023/12/29 05:58:56;;;;;;;35.50;4.95;;;;;;;;;;5015606;28;20366;-72
2023/12/29 06:01:21;;;;;;;32.45;5.80;;;;;;;;;;5017052;28;20025;-72
2023/12/29 06:03:46;;;;;;;33.88;4.57;;;;;;;;;;5016587;28;20160;-72
2023/12/29 06:06:11;;;;;;;35.20;4.57;;;;;;;;;;5016095;28;20092;-74
2023/12/29 06:08:36;;;;;;;26.55;3.60;;;;;;;;;;5016252;28;20029;-73
2023/12/29 06:11:02;;;;;;;32.77;4.03;;;;;;;;;;5016311;28;20022;-73
2023/12/29 06:13:28;;;;;;;31.00;4.63;;;;;;;;;;5016236;28;20257;-73
2023/12/29 06:15:53;;;;;;;33.83;5.38;;;;;;;;;;5016363;28;20101;-73
2023/12/29 06:18:18;;;;;;;29.27;4.97;;;;;;;;;;5015930;28;20053;-73
2023/12/29 06:20:43;;;;;;;31.42;4.85;;;;;;;;;;5016113;28;20026;-72
2023/12/29 06:23:09;;;;;;;27.23;3.80;;;;;;;;;;5016102;28;20022;-72
2023/12/29 06:25:34;;;;;;;34.17;4.13;;;;;;;;;;5016359;28;20104;-72
2023/12/29 06:27:59;;;;;;;26.67;4.60;;;;;;;;;;5015934;28;20022;-72
2023/12/29 06:30:25;;;;;;;31.38;4.43;;;;;;;;;;5016185;28;20018;-72
2023/12/29 06:32:51;;;;;;;40.15;5.60;;;;;;;;;;5014625;28;20040;-72
2023/12/29 06:35:17;;;;;;;30.83;4.55;;;;;;;;;;5015662;28;20451;-72
2023/12/29 06:37:42;;;;;;;23.10;4.63;;;;;;;;;;5015706;28;20041;-73
2023/12/29 06:40:07;;;;;;;31.10;4.20;;;;;;;;;;5015735;28;20375;-72
2023/12/29 06:42:33;;;;;;;21.67;3.85;;;;;;;;;;5015599;28;20060;-72
2023/12/29 06:44:58;;;;;;;27.88;4.30;;;;;;;;;;5016240;28;20022;-73
2023/12/29 06:47:23;;;;;;;29.58;4.25;;;;;;;;;;5015200;28;20429;-73
2023/12/29 06:49:49;;;;;;;26.65;5.00;;;;;;;;;;5015572;28;20018;-73
2023/12/29 06:52:15;;;;;;;23.27;3.45;;;;;;;;;;5015655;28;20045;-73
2023/12/29 06:54:41;;;;;;;26.83;4.18;;;;;;;;;;5015978;28;20054;-73
2023/12/29 06:57:06;;;;;;;23.30;3.67;;;;;;;;;;5014584;28;20426;-73
2023/12/29 06:59:31;;;;;;;27.83;4.00;;;;;;;;;;5014101;28;20371;-79
2023/12/29 07:01:56;;;;;;;21.90;3.90;;;;;;;;;;5015122;28;20030;-72
2023/12/29 07:04:22;;;;;;;21.40;3.05;;;;;;;;;;5015020;28;20459;-72
2023/12/29 07:06:47;;;;;;;23.30;3.45;;;;;;;;;;5014173;28;20072;-74
2023/12/29 07:09:12;;;;;;;23.40;3.15;;;;;;;;;;5014864;28;20026;-72
2023/12/29 07:11:37;;;;;;;24.63;4.15;;;;;;;;;;5014715;28;20025;-72
2023/12/29 07:14:03;;;;;;;24.52;3.47;;;;;;;;;;5013825;28;20033;-72
2023/12/29 07:16:28;;;;;;;24.45;4.50;;;;;;;;;;5015020;28;20025;-73
2023/12/29 07:18:53;;;;;;;18.85;3.25;;;;;;;;;;5014959;28;20414;-72
2023/12/29 07:21:19;;;;;;;23.35;3.53;;;;;;;;;;5014921;28;20029;-74
2023/12/29 07:23:44;;;;;;;29.48;3.80;;;;;;;;;;5014936;28;20021;-72
2023/12/29 07:26:09;;;;;;;27.33;4.88;;;;;;;;;;5014994;28;20042;-72
2023/12/29 07:28:34;;;;;;;19.73;2.70;;;;;;;;;;5014503;28;20034;-73
2023/12/29 07:31:00;;;;;;;24.52;3.92;;;;;;;;;;5014680;28;20022;-73
2023/12/29 07:33:25;;;;;;;21.13;3.03;;;;;;;;;;5014870;28;20469;-73
2023/12/29 07:35:50;;;;;;;27.75;3.45;;;;;;;;;;5014357;28;20034;-72
2023/12/29 07:38:16;;;;;;;26.98;2.80;;;;;;;;;;5014409;28;20049;-72
2023/12/29 07:40:41;;;;;;;22.98;2.78;;;;;;;;;;5014529;28;20029;-73
2023/12/29 07:43:06;;;;;;;24.92;2.95;;;;;;;;;;5014482;28;20108;-72
2023/12/29 07:45:32;;;;;;;17.80;2.83;;;;;;;;;;5014916;28;20100;-73
2023/12/29 07:47:57;;;;;;;22.92;3.05;;;;;;;;;;5013753;28;20087;-72
2023/12/29 07:50:22;;;;;;;21.13;3.22;;;;;;;;;;5014643;28;20026;-72
2023/12/29 07:52:48;;;;;;;12.20;2.85;;;;;;;;;;5014671;28;20033;-73
2023/12/29 07:55:16;;;;;;;19.55;2.88;;;;;;;;;;5013616;28;20049;-73
2023/12/29 07:57:41;;;;;;;15.13;2.63;;;;;;;;;;5014328;28;20026;-73
2023/12/29 08:00:06;;;;;;;11.47;2.50;;;;;;;;;;5013965;28;20157;-73
2023/12/29 08:02:32;;;;;;;16.45;2.25;;;;;;;;;;5014707;28;20275;-73
2023/12/29 08:04:57;;;;;;;15.20;2.25;;;;;;;;;;5014131;28;20029;-72
2023/12/29 08:07:22;;;;;;;19.00;3.00;;;;;;;;;;5014142;28;20509;-73
2023/12/29 08:09:47;;;;;;;10.43;2.25;;;;;;;;;;5012883;28;20265;-73
2023/12/29 08:12:13;;;;;;;14.20;2.40;;;;;;;;;;5013885;28;20029;-73
2023/12/29 08:14:38;;;;;;;10.60;1.80;;;;;;;;;;5013719;28;20815;-73
2023/12/29 08:17:04;;;;;;;11.98;2.97;;;;;;;;;;5013985;28;20022;-73
2023/12/29 08:19:29;;;;;;;12.35;2.40;;;;;;;;;;5013903;28;20022;-74
2023/12/29 08:21:54;;;;;;;15.43;2.47;;;;;;;;;;5012931;28;20375;-72
2023/12/29 08:24:20;;;;;;;10.90;2.35;;;;;;;;;;5012882;28;20366;-72
2023/12/29 08:26:46;;;;;;;11.35;2.70;;;;;;;;;;5013358;28;20502;-73
2023/12/29 08:29:11;;;;;;;17.58;2.13;;;;;;;;;;5012789;28;20147;-71
2023/12/29 08:31:36;;;;;;;12.02;2.83;;;;;;;;;;5014493;28;20033;-74
2023/12/29 08:34:01;;;;;;;17.55;2.70;;;;;;;;;;5013739;28;20026;-73
2023/12/29 08:36:27;;;;;;;8.97;1.87;;;;;;;;;;5013680;28;20038;-73
2023/12/29 08:38:52;;;;;;;19.37;2.70;;;;;;;;;;5012506;28;20308;-73
2023/12/29 08:41:18;;;;;;;15.23;2.40;;;;;;;;;;5013917;28;20602;-72
2023/12/29 08:43:43;;;;;;;16.30;2.38;;;;;;;;;;5013911;28;20425;-73
2023/12/29 08:46:08;;;;;;;17.17;2.38;;;;;;;;;;5013808;28;20033;-73
2023/12/29 08:48:34;;;;;;;16.42;2.47;;;;;;;;;;5013375;28;20030;-71
2023/12/29 08:50:59;;;;;;;9.15;1.73;;;;;;;;;;5013801;28;20021;-72
2023/12/29 08:53:25;;;;;;;22.65;2.35;;;;;;;;;;5012152;28;20490;-73
2023/12/29 08:55:50;;;;;;;12.32;2.20;;;;;;;;;;5013383;28;20022;-73
2023/12/29 08:58:15;;;;;;;18.75;2.95;;;;;;;;;;5013504;28;20496;-73
2023/12/29 09:00:40;;;;;;;12.75;2.42;;;;;;;;;;5012289;28;20060;-73
2023/12/29 09:03:06;;;;;;;15.25;2.65;;;;;;;;;;5012238;28;20039;-74
2023/12/29 09:05:31;;;;;;;16.33;2.50;;;;;;;;;;5014075;28;20030;-72
2023/12/29 09:07:56;;;;;;;9.43;1.98;;;;;;;;;;5012199;28;20362;-74
2023/12/29 09:10:22;;;;;;;20.63;2.58;;;;;;;;;;5014021;28;20026;-73
2023/12/29 09:12:47;;;;;;;17.92;2.35;;;;;;;;;;5012250;28;20068;-73
2023/12/29 09:15:13;;;;;;;15.02;2.47;;;;;;;;;;5013594;28;20022;-74
2023/12/29 09:17:38;;;;;;;19.23;2.75;;;;;;;;;;5013086;28;20456;-73
2023/12/29 09:20:03;;;;;;;21.75;2.78;;;;;;;;;;5012840;28;20165;-74
2023/12/29 09:22:29;;;;;;;20.48;2.95;;;;;;;;;;5013350;28;20033;-75
2023/12/29 09:24:55;;;;;;;25.10;2.72;;;;;;;;;;5012876;28;20455;-74
2023/12/29 09:27:20;;;;;;;21.77;2.78;;;;;;;;;;5012827;28;20137;-72
2023/12/29 09:29:45;;;;;;;17.85;2.58;;;;;;;;;;5013231;28;20394;-72
2023/12/29 09:32:10;;;;;;;16.98;2.13;;;;;;;;;;5014243;28;20350;-73
2023/12/29 09:34:36;;;;;;;21.77;2.78;;;;;;;;;;5015354;28;20112;-73
2023/12/29 09:37:01;;;;;;;15.30;3.28;;;;;;;;;;5016652;28;20061;-73
2023/12/29 09:39:26;;;;;;;12.90;2.47;;;;;;;;;;5016592;28;20029;-73
2023/12/29 09:41:52;;;;;;;18.43;2.57;;;;;;;;;;5016542;28;20272;-73
2023/12/29 09:44:19;;;;;;;17.58;2.53;;;;;;;;;;5016518;28;20261;-73
2023/12/29 09:46:49;;;;;;;20.58;3.67;;;;;;;;;;5016144;28;20030;-74
2023/12/29 09:49:15;;;;;;;18.42;2.65;;;;;;;;;;5014959;28;20094;-73
2023/12/29 09:51:41;;;;;;;21.67;3.50;;;;;;;;;;5017002;28;20344;-73
2023/12/29 09:54:08;;;;;;;23.73;3.10;;;;;;;;;;5016348;28;20129;-72
2023/12/29 09:56:33;;;;;;;22.88;2.90;;;;;;;;;;5016271;28;20061;-73
2023/12/29 09:58:59;;;;;;;19.98;2.97;;;;;;;;;;5016041;28;20041;-72
2023/12/29 10:01:27;;;;;;;22.65;3.08;;;;;;;;;;5015897;28;20045;-73
2023/12/29 10:03:52;;;;;;;15.27;3.00;;;;;;;;;;5016007;28;20459;-75
2023/12/29 10:06:21;;;;;;;21.23;3.00;;;;;;;;;;5014451;28;20034;-74
2023/12/29 10:08:47;;;;;;;29.30;3.45;;;;;;;;;;5016030;28;20099;-73
2023/12/29 10:11:15;;;;;;;21.25;3.42;;;;;;;;;;5014620;28;20021;-74
2023/12/29 10:13:41;;;;;;;22.67;3.42;;;;;;;;;;5015955;28;20152;-74
2023/12/29 10:16:07;;;;;;;22.73;3.35;;;;;;;;;;5015544;28;20025;-73
2023/12/29 10:18:36;;;;;;;22.40;3.20;;;;;;;;;;5014608;28;20075;-73
2023/12/29 10:21:07;;;;;;;18.88;3.75;;;;;;;;;;5015715;28;20265;-75
2023/12/29 10:23:36;;;;;;;21.15;3.05;;;;;;;;;;5016370;28;20022;-73
2023/12/29 10:26:02;;;;;;;18.63;3.22;;;;;;;;;;5015538;28;20106;-76
2023/12/29 10:28:27;;;;;;;31.40;4.10;;;;;;;;;;5016895;28;20033;-73
2023/12/29 10:30:52;;;;;;;27.17;3.33;;;;;;;;;;5015883;28;20026;-73
2023/12/29 10:33:29;;;;;;;25.03;3.57;;;;;;;;;;5015800;28;20467;-73
2023/12/29 10:36:06;;;;;;;35.92;5.15;;;;;;;;;;5014289;28;20804;-73
2023/12/29 10:38:32;;;;;;;21.27;3.95;;;;;;;;;;5015385;28;20072;-74
2023/12/29 10:41:26;;;;;;;24.35;3.25;;;;;;;;;;5016140;28;20021;-72
2023/12/29 10:43:52;;;;;;;22.75;3.30;;;;;;;;;;5002474;28;20034;-75
2023/12/29 10:46:17;;;;;;;28.15;3.72;;;;;;;;;;5015034;28;20163;-73
2023/12/29 10:48:42;;;;;;;29.30;3.60;;;;;;;;;;5015298;28;20085;-73
2023/12/29 10:51:07;;;;;;;15.13;2.80;;;;;;;;;;5015151;28;20097;-74
2023/12/29 10:53:34;;;;;;;26.02;3.67;;;;;;;;;;5014641;28;20347;-74
2023/12/29 10:55:59;;;;;;;22.73;4.20;;;;;;;;;;5015744;28;20030;-73
2023/12/29 10:58:32;;;;;;;27.35;3.95;;;;;;;;;;5015022;28;20145;-74
2023/12/29 11:00:57;;;;;;;21.58;3.72;;;;;;;;;;5015131;28;20488;-73
2023/12/29 11:03:23;;;;;;;23.92;3.60;;;;;;;;;;5014699;28;20018;-72
2023/12/29 11:05:49;;;;;;;24.70;4.00;;;;;;;;;;5015194;28;20026;-73
2023/12/29 11:08:15;;;;;;;22.48;3.17;;;;;;;;;;5014710;28;20033;-72
2023/12/29 11:10:41;;;;;;;20.95;3.50;;;;;;;;;;5015058;28;20097;-73
2023/12/29 11:13:06;;;;;;;24.00;3.50;;;;;;;;;;5014895;28;20473;-73
2023/12/29 11:15:32;;;;;;;32.63;4.38;;;;;;;;;;5013988;28;20112;-74
2023/12/29 11:17:59;;;;;;;24.60;3.13;;;;;;;;;;5014507;28;20028;-73
2023/12/29 11:20:26;;;;;;;31.15;4.32;;;;;;;;;;5014837;28;20037;-72
2023/12/29 11:22:51;;;;;;;23.25;3.50;;;;;;;;;;5014827;28;20018;-73
2023/12/29 11:25:16;;;;;;;20.75;3.17;;;;;;;;;;5013298;28;20033;-73
2023/12/29 11:27:42;;;;;;;28.27;4.43;;;;;;;;;;5014533;28;20105;-73
2023/12/29 11:30:07;;;;;;;21.67;3.78;;;;;;;;;;5015168;28;20410;-73
2023/12/29 11:32:44;;;;;;;25.95;3.85;;;;;;;;;;5014665;28;20025;-73
2023/12/29 11:35:14;;;;;;;22.35;3.42;;;;;;;;;;5014503;28;20107;-73
2023/12/29 11:37:58;;;;;;;19.30;3.25;;;;;;;;;;5014521;28;20025;-72
2023/12/29 11:40:29;;;;;;;17.83;3.10;;;;;;;;;;5014778;28;20063;-73
2023/12/29 11:42:57;;;;;;;18.35;3.92;;;;;;;;;;5014174;28;20022;-74
2023/12/29 11:45:28;;;;;;;22.20;3.55;;;;;;;;;;5014312;28;20018;-74
2023/12/29 11:47:55;;;;;;;17.98;3.65;;;;;;;;;;5014174;28;20032;-73
2023/12/29 11:50:31;;;;;;;24.38;2.80;;;;;;;;;;5012626;28;20379;-73
2023/12/29 11:52:57;;;;;;;20.55;4.28;;;;;;;;;;5014140;28;20014;-73
2023/12/29 11:55:27;;;;;;;25.63;3.15;;;;;;;;;;5013026;28;20053;-74
2023/12/29 11:57:53;;;;;;;23.63;3.47;;;;;;;;;;5014690;28;20025;-73
2023/12/29 12:00:18;;;;;;;13.27;2.92;;;;;;;;;;5013340;28;20132;-73
2023/12/29 12:02:43;;;;;;;19.15;3.35;;;;;;;;;;5014627;28;20378;-74
2023/12/29 12:05:12;;;;;;;19.65;3.33;;;;;;;;;;5013900;28;20021;-73
2023/12/29 12:07:41;;;;;;;22.58;3.22;;;;;;;;;;5012501;28;20022;-73
2023/12/29 12:10:26;;;;;;;16.33;2.60;;;;;;;;;;5013990;28;20022;-73
2023/12/29 12:12:52;;;;;;;15.07;2.70;;;;;;;;;;5013692;28;20026;-75
2023/12/29 12:15:26;;;;;;;23.00;3.85;;;;;;;;;;5013331;28;20048;-73
2023/12/29 12:17:52;;;;;;;23.42;4.40;;;;;;;;;;5013747;28;20025;-74
2023/12/29 12:20:17;;;;;;;20.88;2.78;;;;;;;;;;5013664;28;20033;-75
2023/12/29 12:22:44;;;;;;;23.52;3.70;;;;;;;;;;5013332;28;20029;-73
2023/12/29 12:25:11;;;;;;;12.20;2.47;;;;;;;;;;5013391;28;20413;-73
2023/12/29 12:27:37;;;;;;;18.73;2.72;;;;;;;;;;5013296;28;20161;-76
2023/12/29 12:30:02;;;;;;;18.05;2.45;;;;;;;;;;5013759;28;20022;-74
2023/12/29 12:32:28;;;;;;;15.35;2.45;;;;;;;;;;5012194;28;20096;-74
2023/12/29 12:34:54;;;;;;;13.90;2.53;;;;;;;;;;5013449;28;20063;-74
2023/12/29 12:37:23;;;;;;;16.75;2.72;;;;;;;;;;5013564;28;20022;-73
2023/12/29 12:39:49;;;;;;;12.27;2.50;;;;;;;;;;5013445;28;20097;-73
2023/12/29 12:42:15;;;;;;;12.35;2.47;;;;;;;;;;5013355;28;20582;-72
2023/12/29 12:44:41;;;;;;;12.20;2.25;;;;;;;;;;5013300;28;20028;-73
2023/12/29 12:47:09;;;;;;;17.92;2.47;;;;;;;;;;5013097;28;20029;-74
2023/12/29 12:49:34;;;;;;;15.73;2.20;;;;;;;;;;5011967;28;20355;-75
2023/12/29 12:52:00;;;;;;;14.98;3.75;;;;;;;;;;5013274;28;20018;-73
2023/12/29 12:54:25;;;;;;;20.98;3.17;;;;;;;;;;5013221;28;20460;-74
2023/12/29 12:56:50;;;;;;;11.15;2.75;;;;;;;;;;5013495;28;20026;-73
2023/12/29 12:59:18;;;;;;;17.75;2.85;;;;;;;;;;5013244;28;20029;-73
2023/12/29 13:01:44;;;;;;;19.38;3.67;;;;;;;;;;5013518;28;20455;-73
2023/12/29 13:04:10;;;;;;;23.35;2.90;;;;;;;;;;5013109;28;20033;-74
2023/12/29 13:06:40;;;;;;;19.75;2.88;;;;;;;;;;5013611;28;20105;-74
2023/12/29 13:09:11;;;;;;;12.23;2.40;;;;;;;;;;5017329;28;20072;-73
2023/12/29 13:11:36;;;;;;;15.23;2.45;;;;;;;;;;5017192;28;20025;-75
2023/12/29 13:14:02;;;;;;;20.75;3.17;;;;;;;;;;5017684;28;20026;-73
2023/12/29 13:16:38;;;;;;;20.05;3.25;;;;;;;;;;5017028;28;20390;-73
2023/12/29 13:19:16;;;;;;;15.20;2.78;;;;;;;;;;5017771;28;20022;-74
2023/12/29 13:21:41;;;;;;;13.23;2.88;;;;;;;;;;5017429;28;20132;-73
2023/12/29 13:24:07;;;;;;;12.75;2.80;;;;;;;;;;5016878;28;20030;-73
2023/12/29 13:26:32;;;;;;;16.63;2.53;;;;;;;;;;5016822;28;20034;-74
2023/12/29 13:28:57;;;;;;;21.27;2.78;;;;;;;;;;5016848;28;20026;-73
2023/12/29 13:31:23;;;;;;;15.85;2.75;;;;;;;;;;5016576;28;20058;-73
2023/12/29 13:33:57;;;;;;;14.55;2.80;;;;;;;;;;5016663;28;20049;-73
2023/12/29 13:36:22;;;;;;;20.30;2.95;;;;;;;;;;5017479;28;20125;-73
2023/12/29 13:38:57;;;;;;;18.43;2.67;;;;;;;;;;5017334;28;20104;-73
2023/12/29 13:41:23;;;;;;;21.48;2.78;;;;;;;;;;5017016;28;20282;-74
2023/12/29 13:43:49;;;;;;;17.38;2.38;;;;;;;;;;5017022;28;20524;-73
2023/12/29 13:46:16;;;;;;;20.23;4.10;;;;;;;;;;5016049;28;20057;-73
2023/12/29 13:48:41;;;;;;;15.55;2.78;;;;;;;;;;5016857;28;20042;-73
2023/12/29 13:51:07;;;;;;;18.05;3.33;;;;;;;;;;5016841;28;20123;-73
2023/12/29 13:53:32;;;;;;;19.60;3.47;;;;;;;;;;5016511;28;20028;-74
2023/12/29 13:56:07;;;;;;;16.48;2.35;;;;;;;;;;5016902;28;20032;-71
2023/12/29 13:58:32;;;;;;;23.83;3.60;;;;;;;;;;5016205;28;20068;-73
2023/12/29 14:00:59;;;;;;;20.60;4.03;;;;;;;;;;5016466;28;20022;-73
2023/12/29 14:03:32;;;;;;;19.95;3.95;;;;;;;;;;5016498;28;20069;-74
2023/12/29 14:06:04;;;;;;;19.20;3.13;;;;;;;;;;5016336;28;20354;-73
2023/12/29 14:08:34;;;;;;;17.88;2.70;;;;;;;;;;4998892;28;20109;-74
2023/12/29 14:10:59;;;;;;;13.93;2.53;;;;;;;;;;5016120;28;20060;-72
2023/12/29 14:13:25;;;;;;;18.08;3.10;;;;;;;;;;5015476;28;20041;-72
2023/12/29 14:15:53;;;;;;;16.42;2.67;;;;;;;;;;5016433;28;20026;-73
2023/12/29 14:18:38;;;;;;;14.95;2.75;;;;;;;;;;5014893;28;20034;-73
2023/12/29 14:21:19;;;;;;;21.92;2.60;;;;;;;;;;5016265;28;20466;-72
2023/12/29 14:23:44;;;;;;;;;;;;;;;;;;5016793;28;20018;-73
2023/12/29 14:26:10;;;;;;;15.18;2.83;;;;;;;;;;5015422;28;19921;-73